Details From LFPO - Paris Orly
To TNCM - St Maarten - Princess Juliana Intl
Flight Number -
Tags Generated
Created
Modified
Stats Distance 3,632 nm / 6,726 km
Max Altitude 0 ft / 0 m
Waypoints 4
Social Downloads 3
Likes 0
Share VATSIM

Download

Looking for another format? Having issues loading an existing format? Contact us
Advertisement - Login to hide

Notes

Generated

Route

LFPO GSG MNOLO TNCM

ID Type Via Altitude Latitude Longitude Leg Dist Tot Dist Heading (true) Name
O LFPO APT - 0 ft / 0 m 48.71772˚ 2.37681˚ - 0 nm - -
GSG NDB - 0 ft / 0 m 48.16000˚ -3.60250˚ 240 nm 240 nm 264° / 260° Guiscriff Scaer NDB
MNOLO FIX - 0 ft / 0 m 18.34556˚ -62.80211˚ 3365 nm 3605 nm 259° / 224° -
O TNCM APT - 0 ft / 0 m 18.03937˚ -63.11961˚ 25 nm 3631 nm 225° / 225° -

Altitude Profile

Advertisement - Login to hide

Weather


0- 5 10 15 20 25 30 35+ Temperature / ° C

Clouds and Precipitation
Forecast for 2017-12-14 12:00 UTC. Updated 2 hours ago

Ground ~20,000 ft ~40,000 ft Winds

LFPO

Details ICAO LFPO (ORY)
Name Paris Orly
Region France
Timezone Europe/Paris (UTC+1.0)
Stats Elevation 291 ft / 89 m (AMSL)
Location 48.726360° 2.367029°
Runways 3
Magnetic Variation 0.600° E

METAR

LFPO 141300Z 24016KT 9999 FEW023 SCT033 BKN083 07/03 Q0998 TEMPO 24015G35KT 4000 SHRA BKN025TCU

Decode

TAF

TAF LFPO 141100Z 1412/1518 24013KT 9999 SCT030 TEMPO 1412/1421 24017G30KT 4000 SHRA BKN025TCU PROB30 TEMPO 1414/1418 24020G37KT 2000 TSGS BKN025CB TEMPO 1421/1506 SCT025TCU TEMPO 1506/1518 24015G27KT 4000 SHRA BKN012 BKN025TCU PROB30 TEMPO 1510/1517 2000 TSGS BKN025CB

Decode

Departure Runways

ID Width Length Bearing (true) Bearing (mag) Surface Threshold Offset Overrun Length
02 197 ft / 60 m 7,873 ft / 2,400 m 18.29° 17.69° Concrete 0 ft / 0 m 0 ft / 0 m
06 148 ft / 45 m 11,952 ft / 3,643 m 61.78° 61.18° Asphalt 984 ft / 300 m 197 ft / 60 m
08 148 ft / 45 m 10,868 ft / 3,313 m 74.36° 73.76° Concrete 0 ft / 0 m 1,050 ft / 320 m
20 197 ft / 60 m 7,873 ft / 2,400 m 198.30° 197.70° Concrete 0 ft / 0 m 0 ft / 0 m
24 148 ft / 45 m 11,952 ft / 3,643 m 241.81° 241.21° Asphalt 0 ft / 0 m 197 ft / 60 m
26 148 ft / 45 m 10,868 ft / 3,313 m 254.39° 253.79° Concrete 1,427 ft / 435 m 0 ft / 0 m

TNCM

Details ICAO TNCM (SXM)
Name St Maarten - Princess Juliana Intl
Region Caribbean Netherlands, Aruba, Curaçao, Sint Maarten
Timezone Unknown (UTC+0.0)
Stats Elevation 12 ft / 4 m (AMSL)
Location 18.040889° -63.108974°
Runways 1
Magnetic Variation 14.325° W

METAR

TNCM 141300Z 12009KT 9999 FEW022 28/21 Q1018 A3006 NOSIG

Decode

TAF

TAF TNCM 141140Z 1412/1512 09008KT P6SM SCT020

Decode

Destination Runways

ID Width Length Bearing (true) Bearing (mag) Surface Threshold Offset Overrun Length
10 148 ft / 45 m 7,464 ft / 2,275 m 81.43° 95.76° Asphalt 0 ft / 0 m 151 ft / 46 m
28 148 ft / 45 m 7,464 ft / 2,275 m 261.44° 275.77° Asphalt 397 ft / 121 m 0 ft / 0 m

Popular Alternatives